Pittsburg, Texas
Current Conditions -  °F | °C
As of 4:55 AM on Friday 31 Oct 2014 (Local Time) from KOSA Reporting Station
Clear Clear  
Wind Chill: 54°   Ceiling: Unl
Heat Index: 54°   Visibility: 10mi
Dew Point: 45°   Wind: 8mph
Humidity: 71%   Direction: 330°NNW
Pressure: 30.15"   Gusts: NA
Location:  33°N, 94.97°W
Report Text: KOSA 310955Z AUTO 33007KT 10SM CLR 12/07 A3015 RMK AO1 T01220070
Loading
Personal Weather Stations






























Interactive Weather Map
Tropical Storm Tracking
New forecast layout! Learn more

10-Day Weather Forecast

Advertisements
Track Severe Weather on mobile